Amherst, Colorado
Current Conditions -  °F | °C
As of 2:25 AM on Friday 24 Oct 2014 (Local Time) from KHEQ Reporting Station
Clear Clear  
Wind Chill: 52°   Ceiling: Unl
Heat Index: 52°   Visibility: 10mi
Dew Point: 37°   Wind: 7mph
Humidity: 58%   Direction: 250°WSW
Pressure: 30.05"   Gusts: NA
Location:  40.68°N, 102.17°W
Report Text: KHEQ 240825Z AUTO 25006KT 10SM CLR 11/03 A3005 RMK AO2
Loading
Personal Weather Stations






























Interactive Weather Map New forecast layout! Learn more

10-Day Weather Forecast

Advertisements
Track Severe Weather on mobile